createdAt,value
2024-02-21T00:00:03.362Z,8.77
2024-02-21T00:02:32.860Z,11.80
2024-02-21T00:05:01.755Z,9.77
2024-02-21T00:07:30.406Z,11.52
2024-02-21T00:09:59.003Z,11.32
2024-02-21T00:12:28.875Z,7.43
2024-02-21T00:14:57.315Z,9.13
2024-02-21T00:17:27.322Z,8.77
2024-02-21T00:19:55.975Z,13.35
2024-02-21T00:22:24.519Z,9.88
2024-02-21T00:24:53.024Z,9.98
2024-02-21T00:27:21.537Z,11.35
2024-02-21T00:29:51.411Z,9.93
2024-02-21T00:32:19.897Z,7.30
2024-02-21T00:34:48.447Z,20.40
2024-02-21T00:37:17.012Z,9.30
2024-02-21T00:39:45.579Z,9.13
2024-02-21T00:42:14.040Z,7.95
2024-02-21T00:44:42.491Z,13.00
2024-02-21T00:47:12.838Z,10.55
2024-02-21T00:49:41.859Z,11.63
2024-02-21T00:52:10.539Z,10.82
2024-02-21T00:54:47.749Z,15.27
2024-02-21T00:57:21.960Z,9.98
2024-02-21T00:59:50.472Z,10.52
2024-02-21T01:02:20.507Z,8.23
2024-02-21T01:04:49.123Z,10.43
2024-02-21T01:07:17.759Z,13.00
2024-02-21T01:09:46.194Z,15.15
2024-02-21T01:12:14.690Z,14.50
2024-02-21T01:14:43.146Z,9.30
2024-02-21T01:17:11.603Z,9.57
2024-02-21T01:19:41.467Z,11.57
2024-02-21T01:22:10.004Z,7.20
2024-02-21T01:24:38.416Z,13.10
2024-02-21T01:27:07.096Z,8.60
2024-02-21T01:29:35.580Z,9.45
2024-02-21T01:32:04.053Z,8.57
2024-02-21T01:34:33.353Z,12.85
2024-02-21T01:37:05.658Z,7.93
2024-02-21T01:39:34.460Z,8.25
2024-02-21T01:42:03.179Z,9.20
2024-02-21T01:44:32.818Z,7.43
2024-02-21T01:47:01.809Z,10.55
2024-02-21T01:49:30.538Z,17.83
2024-02-21T01:51:59.081Z,11.25
2024-02-21T01:54:30.648Z,8.07
2024-02-21T01:56:59.353Z,5.88
2024-02-21T01:59:28.041Z,11.52
2024-02-21T02:01:57.763Z,12.93
2024-02-21T02:04:28.224Z,18.50
2024-02-21T02:06:57.533Z,10.85
2024-02-21T02:09:26.082Z,8.93
2024-02-21T02:11:55.980Z,10.70
2024-02-21T02:14:24.635Z,16.75
2024-02-21T02:16:53.095Z,10.00
2024-02-21T02:19:21.810Z,8.40
2024-02-21T02:22:05.733Z,12.93
2024-02-21T02:24:35.899Z,9.60
2024-02-21T02:27:04.852Z,10.30
2024-02-21T02:29:34.952Z,13.23
2024-02-21T02:32:07.065Z,14.38
2024-02-21T02:34:35.485Z,7.97
2024-02-21T02:37:03.945Z,12.77
2024-02-21T02:39:32.875Z,7.68
2024-02-21T02:42:02.855Z,9.13
2024-02-21T02:44:31.605Z,6.15
2024-02-21T02:47:00.261Z,13.55
2024-02-21T02:49:28.739Z,9.00
2024-02-21T02:51:57.232Z,10.55
2024-02-21T02:54:25.691Z,10.00
2024-02-21T02:56:54.193Z,6.50
2024-02-21T02:59:23.929Z,12.07
2024-02-21T03:01:52.501Z,12.38
2024-02-21T03:04:21.133Z,9.52
2024-02-21T03:06:49.682Z,10.90
2024-02-21T03:09:18.551Z,9.65
2024-02-21T03:11:47.214Z,10.32
2024-02-21T03:14:15.670Z,10.32
2024-02-21T03:16:45.589Z,8.80
2024-02-21T03:19:14.134Z,7.55
2024-02-21T03:21:42.726Z,7.95
2024-02-21T03:24:11.276Z,6.18
2024-02-21T03:26:39.655Z,6.20
2024-02-21T03:29:08.088Z,6.13
2024-02-21T03:31:36.648Z,7.57
2024-02-21T03:34:06.720Z,8.48
2024-02-21T03:36:35.194Z,6.40
2024-02-21T03:39:03.991Z,6.50
2024-02-21T03:41:32.774Z,10.95
2024-02-21T03:44:01.853Z,12.00
2024-02-21T03:46:30.460Z,4.10
2024-02-21T03:48:58.967Z,12.15
2024-02-21T03:51:28.751Z,9.07
2024-02-21T03:53:57.331Z,8.05
2024-02-21T03:56:25.714Z,6.25
2024-02-21T03:58:54.444Z,5.68
2024-02-21T04:01:23.235Z,8.10
2024-02-21T04:03:51.859Z,9.68
2024-02-21T04:06:21.077Z,7.85
2024-02-21T04:08:51.197Z,11.30
2024-02-21T04:11:19.940Z,6.72
2024-02-21T04:13:51.182Z,7.80
2024-02-21T04:16:20.164Z,6.70
2024-02-21T04:18:48.628Z,7.88
2024-02-21T04:21:18.585Z,11.68
2024-02-21T04:23:47.149Z,4.32
2024-02-21T04:26:16.912Z,9.02
2024-02-21T04:28:48.380Z,9.20
2024-02-21T04:31:17.071Z,7.55
2024-02-21T04:33:46.835Z,9.50
2024-02-21T04:36:15.880Z,7.45
2024-02-21T04:38:44.344Z,11.70
2024-02-21T04:41:12.808Z,7.13
2024-02-21T04:43:43.141Z,6.25
2024-02-21T04:46:12.376Z,10.02
2024-02-21T04:48:40.766Z,7.82
2024-02-21T04:51:09.380Z,8.57
2024-02-21T04:53:37.929Z,7.90
2024-02-21T04:56:06.679Z,8.77
2024-02-21T04:58:35.392Z,7.50
2024-02-21T05:01:05.523Z,7.43
2024-02-21T05:03:34.252Z,7.57
2024-02-21T05:06:03.140Z,8.73
2024-02-21T05:08:31.800Z,5.60
2024-02-21T05:11:00.314Z,6.95
2024-02-21T05:13:29.000Z,8.65
2024-02-21T05:15:57.624Z,6.03
2024-02-21T05:18:27.575Z,6.53
2024-02-21T05:20:56.043Z,8.10
2024-02-21T05:23:24.508Z,9.52
2024-02-21T05:25:52.990Z,11.23
2024-02-21T05:28:21.523Z,11.00
2024-02-21T05:30:50.238Z,8.88
2024-02-21T05:33:29.826Z,9.18
2024-02-21T05:35:59.673Z,10.43
2024-02-21T05:38:28.101Z,8.07
2024-02-21T05:40:56.747Z,11.00
2024-02-21T05:43:28.374Z,10.48
2024-02-21T05:45:57.013Z,11.45
2024-02-21T05:48:25.916Z,11.70
2024-02-21T05:50:54.525Z,11.02
2024-02-21T05:53:24.357Z,11.98
2024-02-21T05:55:53.873Z,14.25
2024-02-21T05:58:22.922Z,11.73
2024-02-21T06:00:53.371Z,11.77
2024-02-21T06:03:21.908Z,13.13
2024-02-21T06:05:50.536Z,10.20
2024-02-21T06:08:19.229Z,11.45
2024-02-21T06:10:49.552Z,10.32
2024-02-21T06:13:18.247Z,10.70
2024-02-21T06:15:47.269Z,9.48
2024-02-21T06:18:15.881Z,12.10
2024-02-21T06:20:44.440Z,11.80
2024-02-21T06:23:13.093Z,12.52
2024-02-21T06:25:41.777Z,11.90
2024-02-21T06:28:11.673Z,9.27
2024-02-21T06:30:43.130Z,13.20
2024-02-21T06:33:11.657Z,13.38
2024-02-21T06:35:42.220Z,11.07
2024-02-21T06:38:10.961Z,11.00
2024-02-21T06:40:41.491Z,12.88
2024-02-21T06:43:10.040Z,12.38
2024-02-21T06:45:39.837Z,12.35
2024-02-21T06:48:09.034Z,13.38
2024-02-21T06:50:37.560Z,14.20
2024-02-21T06:53:07.826Z,13.98
2024-02-21T06:55:38.527Z,9.75
2024-02-21T06:58:09.765Z,19.27
2024-02-21T07:00:39.930Z,14.13
2024-02-21T07:03:08.459Z,12.52
2024-02-21T07:05:37.393Z,15.00
2024-02-21T07:08:06.342Z,12.35
2024-02-21T07:10:35.041Z,13.55
2024-02-21T07:13:03.991Z,12.95
2024-02-21T07:15:33.285Z,13.73
2024-02-21T07:18:03.305Z,20.90
2024-02-21T07:20:31.969Z,15.80
2024-02-21T07:23:00.851Z,14.73
2024-02-21T07:25:29.870Z,18.05
2024-02-21T07:27:58.638Z,16.27
2024-02-21T07:30:27.389Z,17.33
2024-02-21T07:32:55.801Z,19.67
2024-02-21T07:35:25.627Z,14.27
2024-02-21T07:37:54.173Z,13.45
2024-02-21T07:40:22.836Z,15.13
2024-02-21T07:42:52.160Z,16.67
2024-02-21T07:45:23.212Z,15.15
2024-02-21T07:47:52.029Z,16.65
2024-02-21T07:50:20.628Z,18.90
2024-02-21T07:52:50.562Z,13.73
2024-02-21T07:55:19.349Z,13.63
2024-02-21T07:57:50.757Z,17.30
2024-02-21T08:00:21.353Z,14.45
2024-02-21T08:02:50.979Z,15.63
2024-02-21T08:05:20.474Z,16.23
2024-02-21T08:07:51.285Z,15.35
2024-02-21T08:10:19.792Z,17.27
2024-02-21T08:12:48.228Z,15.15
2024-02-21T08:15:16.902Z,14.30
2024-02-21T08:17:45.393Z,15.40
2024-02-21T08:20:14.110Z,13.93
2024-02-21T08:22:42.732Z,16.52
2024-02-21T08:25:12.611Z,16.02
2024-02-21T08:27:41.082Z,15.77
2024-02-21T08:30:09.895Z,14.60
2024-02-21T08:32:38.441Z,17.15
2024-02-21T08:35:07.240Z,14.85
2024-02-21T08:37:35.719Z,16.30
2024-02-21T08:40:09.519Z,12.82
2024-02-21T08:42:39.508Z,15.20
2024-02-21T08:45:08.348Z,17.73
2024-02-21T08:47:37.387Z,17.10
2024-02-21T08:50:14.542Z,15.50
2024-02-21T08:52:48.009Z,13.20
2024-02-21T08:55:16.653Z,19.08
2024-02-21T08:57:46.499Z,16.42
2024-02-21T09:00:15.537Z,15.98
2024-02-21T09:02:44.839Z,15.75
2024-02-21T09:05:13.637Z,14.52
2024-02-21T09:07:42.299Z,12.55
2024-02-21T09:10:11.375Z,14.35
2024-02-21T09:12:39.880Z,20.63
2024-02-21T09:15:10.828Z,14.13
2024-02-21T09:17:40.607Z,13.43
2024-02-21T09:20:13.064Z,17.13
2024-02-21T09:22:42.665Z,14.07
2024-02-21T09:25:12.778Z,14.55
2024-02-21T09:27:41.274Z,13.60
2024-02-21T09:30:11.558Z,15.68
2024-02-21T09:32:40.567Z,12.25
2024-02-21T09:35:09.710Z,15.73
2024-02-21T09:37:39.256Z,13.35
2024-02-21T09:40:08.190Z,13.52
2024-02-21T09:42:40.128Z,10.80
2024-02-21T09:45:11.603Z,11.43
2024-02-21T09:47:46.881Z,12.02
2024-02-21T09:50:16.998Z,9.75
2024-02-21T09:52:46.307Z,12.57
2024-02-21T09:55:15.446Z,11.70
2024-02-21T09:57:44.478Z,10.85
2024-02-21T10:00:22.488Z,14.13
2024-02-21T10:02:51.759Z,10.77
2024-02-21T10:05:20.375Z,12.38
2024-02-21T10:07:49.183Z,10.45
2024-02-21T10:10:18.138Z,16.08
2024-02-21T10:12:52.669Z,10.57
2024-02-21T10:15:25.157Z,10.02
2024-02-21T10:18:01.712Z,11.75
2024-02-21T10:20:30.532Z,9.50
2024-02-21T10:23:09.386Z,12.00
2024-02-21T10:25:39.400Z,8.65
2024-02-21T10:28:07.971Z,8.45
2024-02-21T10:30:37.778Z,10.15
2024-02-21T10:33:08.511Z,10.30
2024-02-21T10:35:37.233Z,9.75
2024-02-21T10:38:06.008Z,8.43
2024-02-21T10:40:35.317Z,10.52
2024-02-21T10:43:04.749Z,8.55
2024-02-21T10:45:34.129Z,9.07
2024-02-21T10:48:12.112Z,10.15
2024-02-21T10:50:50.416Z,8.23
2024-02-21T10:53:26.270Z,8.93
2024-02-21T10:55:59.226Z,10.05
2024-02-21T10:58:29.513Z,10.05
2024-02-21T11:00:58.310Z,9.93
2024-02-21T11:03:28.419Z,8.27
2024-02-21T11:05:57.123Z,8.32
2024-02-21T11:08:26.324Z,10.20
2024-02-21T11:11:00.526Z,13.88
2024-02-21T11:13:37.759Z,9.52
2024-02-21T11:16:11.822Z,10.52
2024-02-21T11:18:42.793Z,10.60
2024-02-21T11:21:11.417Z,10.02
2024-02-21T11:23:39.898Z,10.65
2024-02-21T11:26:09.302Z,8.80
2024-02-21T11:28:38.895Z,10.93
2024-02-21T11:31:09.809Z,11.38
2024-02-21T11:33:40.703Z,8.82
2024-02-21T11:36:11.054Z,11.77
2024-02-21T11:38:39.570Z,9.45
2024-02-21T11:41:13.578Z,8.93
2024-02-21T11:43:45.856Z,8.25
2024-02-21T11:46:15.776Z,11.07
2024-02-21T11:48:45.568Z,10.93
2024-02-21T11:51:23.880Z,11.13
2024-02-21T11:54:00.786Z,10.55
2024-02-21T11:56:30.350Z,12.95
2024-02-21T11:59:12.168Z,10.75
2024-02-21T12:01:43.910Z,12.15
2024-02-21T12:04:13.150Z,9.30
2024-02-21T12:06:43.432Z,7.28
2024-02-21T12:09:14.690Z,10.18
2024-02-21T12:11:47.383Z,6.00
2024-02-21T12:14:19.346Z,8.68
2024-02-21T12:16:48.986Z,10.60
2024-02-21T12:19:18.460Z,7.70
2024-02-21T12:21:48.303Z,7.80
2024-02-21T12:24:17.448Z,9.32
2024-02-21T12:26:47.814Z,6.45
2024-02-21T12:29:16.323Z,9.55
2024-02-21T12:31:47.505Z,10.00
2024-02-21T12:34:18.768Z,5.80
2024-02-21T12:36:49.180Z,6.57
2024-02-21T12:39:18.160Z,7.10
2024-02-21T12:41:48.463Z,6.38
2024-02-21T12:44:18.427Z,6.63
2024-02-21T12:46:46.945Z,6.65
2024-02-21T12:49:15.672Z,5.78
2024-02-21T12:51:45.513Z,6.07
2024-02-21T12:54:15.270Z,7.63
2024-02-21T12:56:46.241Z,6.63
2024-02-21T12:59:15.180Z,6.90
2024-02-21T13:01:43.777Z,4.88
2024-02-21T13:04:13.041Z,5.13
2024-02-21T13:06:41.668Z,8.45
2024-02-21T13:09:12.151Z,8.10
2024-02-21T13:11:42.506Z,8.07
2024-02-21T13:14:11.065Z,7.95
2024-02-21T13:16:41.563Z,7.25
2024-02-21T13:19:10.366Z,7.55
2024-02-21T13:21:39.264Z,6.28
2024-02-21T13:24:07.890Z,10.23
2024-02-21T13:26:36.854Z,6.07
2024-02-21T13:29:06.777Z,6.68
2024-02-21T13:31:35.310Z,7.00
2024-02-21T13:34:04.461Z,9.00
2024-02-21T13:36:33.008Z,7.65
2024-02-21T13:39:01.721Z,8.25
2024-02-21T13:41:30.840Z,6.88
2024-02-21T13:44:01.854Z,8.88
2024-02-21T13:46:32.129Z,8.10
2024-02-21T13:49:07.564Z,7.15
2024-02-21T13:51:37.413Z,5.07
2024-02-21T13:54:06.285Z,5.70
2024-02-21T13:56:36.259Z,10.73
2024-02-21T13:59:07.784Z,5.93
2024-02-21T14:01:37.921Z,9.00
2024-02-21T14:04:06.582Z,5.43
2024-02-21T14:06:35.158Z,5.32
2024-02-21T14:09:07.229Z,8.55
2024-02-21T14:11:35.750Z,4.97
2024-02-21T14:14:04.770Z,4.15
2024-02-21T14:16:33.953Z,9.30
2024-02-21T14:19:04.266Z,7.13
2024-02-21T14:21:32.942Z,5.63
2024-02-21T14:24:04.144Z,12.05
2024-02-21T14:26:32.746Z,5.90
2024-02-21T14:29:01.620Z,12.00
2024-02-21T14:31:30.007Z,5.53
2024-02-21T14:33:58.722Z,5.32
2024-02-21T14:36:29.404Z,6.03
2024-02-21T14:38:57.950Z,7.38
2024-02-21T14:41:28.951Z,6.32
2024-02-21T14:44:03.904Z,7.22
2024-02-21T14:46:33.393Z,6.30
2024-02-21T14:49:02.160Z,6.15
2024-02-21T14:51:32.869Z,4.97
2024-02-21T14:54:01.530Z,6.35
2024-02-21T14:56:29.997Z,8.20
2024-02-21T14:59:05.575Z,7.68
2024-02-21T15:01:40.701Z,9.00
2024-02-21T15:04:09.559Z,6.35
2024-02-21T15:06:40.646Z,8.02
2024-02-21T15:09:09.914Z,4.32
2024-02-21T15:11:38.479Z,5.60
2024-02-21T15:14:07.008Z,4.10
2024-02-21T15:16:35.641Z,5.60
2024-02-21T15:19:04.442Z,5.80
2024-02-21T15:21:32.944Z,7.38
2024-02-21T15:24:04.443Z,6.22
2024-02-21T15:26:32.969Z,3.17
2024-02-21T15:29:01.820Z,6.47
2024-02-21T15:31:30.786Z,5.20
2024-02-21T15:34:00.407Z,10.23
2024-02-21T15:36:29.699Z,7.45
2024-02-21T15:39:02.473Z,14.27
2024-02-21T15:41:32.734Z,7.28
2024-02-21T15:44:03.807Z,8.50
2024-02-21T15:46:37.893Z,7.47
2024-02-21T15:49:06.829Z,7.95
2024-02-21T15:51:36.160Z,5.25
2024-02-21T15:54:04.809Z,8.95
2024-02-21T15:56:35.517Z,9.68
2024-02-21T15:59:06.350Z,10.43
2024-02-21T16:01:36.560Z,8.55
2024-02-21T16:04:06.711Z,9.25
2024-02-21T16:06:35.744Z,8.38
2024-02-21T16:09:06.217Z,9.02
2024-02-21T16:11:36.297Z,9.07
2024-02-21T16:14:05.165Z,10.60
2024-02-21T16:16:33.776Z,6.32
2024-02-21T16:19:03.375Z,6.68
2024-02-21T16:21:31.947Z,7.00
2024-02-21T16:24:00.371Z,7.32
2024-02-21T16:26:29.223Z,5.45
2024-02-21T16:28:59.551Z,6.45
2024-02-21T16:31:28.265Z,6.28
2024-02-21T16:33:56.999Z,6.55
2024-02-21T16:36:25.597Z,9.02
2024-02-21T16:38:54.188Z,6.75
2024-02-21T16:41:24.910Z,7.35
2024-02-21T16:43:53.886Z,7.28
2024-02-21T16:46:23.989Z,6.40
2024-02-21T16:48:52.719Z,5.90
2024-02-21T16:51:22.589Z,6.00
2024-02-21T16:53:51.152Z,4.85
2024-02-21T16:56:21.464Z,6.60
2024-02-21T16:58:50.201Z,5.50
2024-02-21T17:01:18.732Z,5.78
2024-02-21T17:03:48.976Z,6.15
2024-02-21T17:06:18.904Z,5.97
2024-02-21T17:08:48.216Z,6.38
2024-02-21T17:11:17.375Z,7.13
2024-02-21T17:13:46.531Z,7.18
2024-02-21T17:16:15.105Z,6.10
2024-02-21T17:18:43.654Z,6.82
2024-02-21T17:21:13.840Z,6.40
2024-02-21T17:23:42.446Z,8.23
2024-02-21T17:26:10.998Z,8.27
2024-02-21T17:28:39.539Z,5.78
2024-02-21T17:31:08.049Z,5.80
2024-02-21T17:33:36.756Z,6.32
2024-02-21T17:36:05.389Z,7.72
2024-02-21T17:38:35.174Z,8.15
2024-02-21T17:41:03.870Z,6.93
2024-02-21T17:43:33.765Z,6.05
2024-02-21T17:46:03.925Z,6.25
2024-02-21T17:48:32.908Z,7.60
2024-02-21T17:51:01.625Z,6.07
2024-02-21T17:53:30.453Z,6.50
2024-02-21T17:56:00.546Z,6.38
2024-02-21T17:58:29.277Z,6.68
2024-02-21T18:01:00.781Z,5.40
2024-02-21T18:03:30.412Z,5.97
2024-02-21T18:06:02.604Z,5.93
2024-02-21T18:08:32.040Z,5.32
2024-02-21T18:11:02.266Z,7.60
2024-02-21T18:13:32.555Z,8.20
2024-02-21T18:16:02.120Z,5.35
2024-02-21T18:18:31.886Z,4.93
2024-02-21T18:21:00.788Z,5.13
2024-02-21T18:23:30.715Z,5.82
2024-02-21T18:26:00.178Z,6.45
2024-02-21T18:28:30.482Z,6.47
2024-02-21T18:30:59.315Z,5.05
2024-02-21T18:33:27.811Z,6.20
2024-02-21T18:35:56.460Z,6.68
2024-02-21T18:38:27.161Z,6.75
2024-02-21T18:40:55.723Z,5.78
2024-02-21T18:43:24.516Z,6.95
2024-02-21T18:45:54.748Z,6.70
2024-02-21T18:48:23.238Z,5.78
2024-02-21T18:50:54.497Z,5.57
2024-02-21T18:53:25.897Z,5.68
2024-02-21T18:55:56.570Z,6.72
2024-02-21T18:58:25.175Z,4.85
2024-02-21T19:00:57.752Z,6.43
2024-02-21T19:03:29.787Z,5.95
2024-02-21T19:05:58.516Z,7.35
2024-02-21T19:08:27.093Z,5.10
2024-02-21T19:10:55.745Z,5.63
2024-02-21T19:13:24.308Z,5.95
2024-02-21T19:15:52.803Z,5.30
2024-02-21T19:18:22.765Z,4.93
2024-02-21T19:20:52.770Z,5.05
2024-02-21T19:23:21.438Z,5.88
2024-02-21T19:25:49.960Z,5.03
2024-02-21T19:28:20.761Z,5.82
2024-02-21T19:30:49.349Z,5.00
2024-02-21T19:33:19.558Z,5.55
2024-02-21T19:35:49.493Z,6.70
2024-02-21T19:38:18.097Z,5.80
2024-02-21T19:40:48.174Z,5.03
2024-02-21T19:43:19.032Z,4.82
2024-02-21T19:45:47.721Z,6.10
2024-02-21T19:48:18.535Z,5.00
2024-02-21T19:50:47.172Z,5.10
2024-02-21T19:53:17.804Z,5.45
2024-02-21T19:55:46.781Z,5.03
2024-02-21T19:58:15.548Z,4.63
2024-02-21T20:00:45.205Z,5.07
2024-02-21T20:03:14.054Z,4.88
2024-02-21T20:05:44.594Z,4.40
2024-02-21T20:08:19.031Z,5.90
2024-02-21T20:10:47.916Z,5.20
2024-02-21T20:13:16.505Z,4.70
2024-02-21T20:15:44.941Z,5.15
2024-02-21T20:18:15.076Z,5.43
2024-02-21T20:20:44.761Z,3.85
2024-02-21T20:23:16.477Z,4.90
2024-02-21T20:25:49.121Z,5.30
2024-02-21T20:28:19.029Z,4.88
2024-02-21T20:30:47.631Z,4.35
2024-02-21T20:33:16.318Z,4.75
2024-02-21T20:35:44.972Z,4.05
2024-02-21T20:38:13.489Z,4.70
2024-02-21T20:40:46.435Z,4.95
2024-02-21T20:43:20.362Z,4.65
2024-02-21T20:45:48.907Z,3.78
2024-02-21T20:48:17.502Z,4.25
2024-02-21T20:50:46.156Z,6.75
2024-02-21T20:53:14.732Z,4.43
2024-02-21T20:55:43.442Z,5.32
2024-02-21T20:58:12.008Z,4.13
2024-02-21T21:00:41.928Z,5.18
2024-02-21T21:03:23.117Z,5.20
2024-02-21T21:06:04.880Z,4.68
2024-02-21T21:08:36.344Z,5.38
2024-02-21T21:11:04.884Z,5.50
2024-02-21T21:13:36.073Z,5.72
2024-02-21T21:16:06.816Z,5.25
2024-02-21T21:18:35.582Z,6.40
2024-02-21T21:21:05.220Z,6.13
2024-02-21T21:23:34.432Z,4.85
2024-02-21T21:26:04.674Z,4.80
2024-02-21T21:28:33.625Z,4.32
2024-02-21T21:31:02.425Z,6.10
2024-02-21T21:33:32.884Z,6.32
2024-02-21T21:36:02.822Z,5.13
2024-02-21T21:38:32.572Z,5.72
2024-02-21T21:41:01.108Z,4.88
2024-02-21T21:43:30.079Z,4.85
2024-02-21T21:45:58.696Z,5.25
2024-02-21T21:48:29.978Z,4.90
2024-02-21T21:50:59.895Z,5.00
2024-02-21T21:53:28.439Z,4.68
2024-02-21T21:55:57.195Z,5.10
2024-02-21T21:58:25.743Z,5.20
2024-02-21T22:00:54.348Z,5.30
2024-02-21T22:03:22.854Z,4.50
2024-02-21T22:05:51.252Z,4.50
2024-02-21T22:08:21.690Z,4.60
2024-02-21T22:10:51.984Z,5.22
2024-02-21T22:13:20.859Z,4.97
2024-02-21T22:15:49.668Z,4.28
2024-02-21T22:18:18.140Z,4.00
2024-02-21T22:20:49.597Z,4.32
2024-02-21T22:23:21.426Z,4.97
2024-02-21T22:25:51.714Z,4.45
2024-02-21T22:28:20.395Z,4.00
2024-02-21T22:30:49.636Z,4.93
2024-02-21T22:33:18.608Z,5.05
2024-02-21T22:35:47.184Z,5.75
2024-02-21T22:38:15.803Z,4.57
2024-02-21T22:40:44.433Z,3.90
2024-02-21T22:43:15.365Z,4.63
2024-02-21T22:45:43.776Z,5.15
2024-02-21T22:48:18.256Z,5.40
2024-02-21T22:51:15.960Z,5.03
2024-02-21T22:53:44.577Z,5.28
2024-02-21T22:56:13.316Z,5.00
2024-02-21T22:58:43.317Z,4.90
2024-02-21T23:01:12.549Z,4.78
2024-02-21T23:03:42.102Z,4.45
2024-02-21T23:06:10.635Z,4.82
2024-02-21T23:08:39.532Z,4.82
2024-02-21T23:11:08.340Z,5.10
2024-02-21T23:13:37.860Z,4.28
2024-02-21T23:16:08.201Z,4.97
2024-02-21T23:18:37.345Z,4.68
2024-02-21T23:21:07.480Z,3.80
2024-02-21T23:23:36.025Z,4.40
2024-02-21T23:26:05.097Z,4.47
2024-02-21T23:28:33.895Z,4.03
2024-02-21T23:31:02.966Z,4.45
2024-02-21T23:33:35.479Z,4.10
2024-02-21T23:36:06.942Z,3.67
2024-02-21T23:38:35.457Z,3.55
2024-02-21T23:41:04.140Z,3.70
2024-02-21T23:43:35.844Z,3.30
2024-02-21T23:46:04.732Z,3.78
2024-02-21T23:48:34.656Z,3.28
2024-02-21T23:51:03.306Z,3.58
2024-02-21T23:53:31.784Z,3.30
2024-02-21T23:56:00.761Z,3.22
2024-02-21T23:58:30.409Z,3.60
